createdAt,value
2022-08-19T00:02:02.136Z,100546.31
2022-08-19T00:04:37.037Z,100536.34
2022-08-19T00:07:06.682Z,100537.13
2022-08-19T00:09:34.286Z,100553.22
2022-08-19T00:12:02.310Z,100569.28
2022-08-19T00:14:33.514Z,100576.19
2022-08-19T00:17:02.147Z,100576.84
2022-08-19T00:19:29.596Z,100568.31
2022-08-19T00:21:57.263Z,100565.09
2022-08-19T00:24:24.838Z,100557.38
2022-08-19T00:26:53.889Z,100558.66
2022-08-19T00:29:22.731Z,100552.41
2022-08-19T00:31:51.101Z,100555.28
2022-08-19T00:34:18.493Z,100531.69
2022-08-19T00:36:45.951Z,100542.28
2022-08-19T00:39:16.508Z,100549.19
2022-08-19T00:41:48.473Z,100533.47
2022-08-19T00:44:27.907Z,100528.00
2022-08-19T00:46:59.888Z,100541.50
2022-08-19T00:49:41.733Z,100534.44
2022-08-19T00:52:22.350Z,100530.41
2022-08-19T00:54:52.655Z,100526.41
2022-08-19T00:57:28.070Z,100527.84
2022-08-19T01:00:02.194Z,100529.31
2022-08-19T01:02:32.199Z,100547.63
2022-08-19T01:05:03.543Z,100540.06
2022-08-19T01:07:38.057Z,100545.06
2022-08-19T01:10:10.353Z,100550.53
2022-08-19T01:12:38.789Z,100565.63
2022-08-19T01:15:10.974Z,100564.03
2022-08-19T01:17:40.113Z,100556.94
2022-08-19T01:20:12.048Z,100566.28
2022-08-19T01:22:50.575Z,100578.31
2022-08-19T01:25:25.204Z,100585.50
2022-08-19T01:27:53.888Z,100582.63
2022-08-19T01:30:28.143Z,100579.41
2022-08-19T01:32:57.059Z,100560.91
2022-08-19T01:35:29.591Z,100563.50
2022-08-19T01:38:09.416Z,100561.72
2022-08-19T01:40:40.866Z,100558.69
2022-08-19T01:43:08.082Z,100544.88
2022-08-19T01:45:36.316Z,100532.34
2022-08-19T01:48:03.993Z,100528.34
2022-08-19T01:50:33.586Z,100552.91
2022-08-19T01:53:07.881Z,100505.53
2022-08-19T01:55:40.821Z,100485.00
2022-08-19T01:58:18.082Z,100465.75
2022-08-19T02:00:46.257Z,100441.34
2022-08-19T02:03:13.974Z,100441.53
2022-08-19T02:05:42.627Z,100449.38
2022-08-19T02:08:11.574Z,100465.75
2022-08-19T02:10:44.549Z,100460.47
2022-08-19T02:13:14.239Z,100478.09
2022-08-19T02:15:42.314Z,100470.56
2022-08-19T02:18:09.975Z,100442.97
2022-08-19T02:20:38.706Z,100452.28
2022-08-19T02:23:13.533Z,100458.28
2022-08-19T02:25:45.261Z,100448.84
2022-08-19T02:28:15.593Z,100449.78
2022-08-19T02:30:46.266Z,100447.56
2022-08-19T02:33:13.318Z,100460.38
2022-08-19T02:35:44.228Z,100460.69
2022-08-19T02:38:26.709Z,100458.44
2022-08-19T02:41:08.303Z,100469.53
2022-08-19T02:43:39.457Z,100475.59
2022-08-19T02:46:23.650Z,100472.25
2022-08-19T02:48:58.856Z,100469.19
2022-08-19T02:51:30.276Z,100471.13
2022-08-19T02:53:57.672Z,100476.56
2022-08-19T02:56:27.289Z,100471.94
2022-08-19T02:58:59.395Z,100472.97
2022-08-19T03:01:32.580Z,100471.53
2022-08-19T03:04:05.352Z,100466.88
2022-08-19T03:06:32.621Z,100460.94
2022-08-19T03:08:59.605Z,100465.75
2022-08-19T03:11:31.061Z,100463.81
2022-08-19T03:13:59.491Z,100471.84
2022-08-19T03:16:28.797Z,100469.13
2022-08-19T03:19:02.233Z,100455.78
2022-08-19T03:21:33.254Z,100457.72
2022-08-19T03:24:04.697Z,100448.19
2022-08-19T03:26:31.705Z,100449.84
2022-08-19T03:28:59.113Z,100438.72
2022-08-19T03:31:44.282Z,100431.66
2022-08-19T03:34:20.523Z,100441.59
2022-08-19T03:36:47.940Z,100440.00
2022-08-19T03:39:16.522Z,100449.00
2022-08-19T03:41:48.297Z,100450.09
2022-08-19T03:44:22.546Z,100454.59
2022-08-19T03:46:53.536Z,100461.66
2022-08-19T03:49:27.157Z,100475.28
2022-08-19T03:51:58.374Z,100479.94
2022-08-19T03:54:26.576Z,100467.41
2022-08-19T03:56:55.883Z,100464.06
2022-08-19T03:59:33.229Z,100455.88
2022-08-19T04:02:06.780Z,100457.00
2022-08-19T04:04:33.681Z,100457.00
2022-08-19T04:07:00.853Z,100457.47
2022-08-19T04:09:27.960Z,100458.28
2022-08-19T04:11:58.416Z,100465.34
2022-08-19T04:14:32.921Z,100467.75
2022-08-19T04:17:01.703Z,100470.31
2022-08-19T04:19:31.524Z,100475.59
2022-08-19T04:21:59.551Z,100471.75
2022-08-19T04:24:27.246Z,100466.63
2022-08-19T04:26:54.409Z,100470.31
2022-08-19T04:29:26.268Z,100471.84
2022-08-19T04:31:55.635Z,100472.81
2022-08-19T04:34:25.446Z,100474.91
2022-08-19T04:36:54.867Z,100473.13
2022-08-19T04:39:45.829Z,100463.19
2022-08-19T04:42:32.228Z,100464.47
2022-08-19T04:44:59.785Z,100467.34
2022-08-19T04:47:47.469Z,100460.94
2022-08-19T04:50:15.011Z,100467.03
2022-08-19T04:52:46.218Z,100457.72
2022-08-19T04:55:15.338Z,100456.75
2022-08-19T04:57:42.316Z,100449.06
2022-08-19T05:00:11.139Z,100450.50
2022-08-19T05:02:38.895Z,100457.56
2022-08-19T05:05:07.364Z,100454.50
2022-08-19T05:07:34.697Z,100454.97
2022-08-19T05:10:02.268Z,100444.88
2022-08-19T05:12:29.649Z,100457.06
2022-08-19T05:14:58.973Z,100452.88
2022-08-19T05:17:30.144Z,100441.97
2022-08-19T05:20:17.735Z,100452.56
2022-08-19T05:22:47.884Z,100434.75
2022-08-19T05:25:19.959Z,100437.16
2022-08-19T05:27:48.100Z,100427.19
2022-08-19T05:30:16.015Z,100434.25
2022-08-19T05:32:43.381Z,100432.97
2022-08-19T05:35:10.889Z,100428.63
2022-08-19T05:37:39.973Z,100421.09
2022-08-19T05:40:08.292Z,100414.97
2022-08-19T05:42:35.984Z,100429.59
2022-08-19T05:45:04.202Z,100439.03
2022-08-19T05:47:31.080Z,100450.72
2022-08-19T05:49:57.968Z,100451.47
2022-08-19T05:52:25.549Z,100452.56
2022-08-19T05:54:57.536Z,100454.31
2022-08-19T05:57:25.132Z,100448.47
2022-08-19T05:59:58.090Z,100446.34
2022-08-19T06:02:31.517Z,100449.03
2022-08-19T06:04:58.679Z,100454.03
2022-08-19T06:07:25.857Z,100449.50
2022-08-19T06:09:59.600Z,100454.78
2022-08-19T06:12:35.928Z,100468.72
2022-08-19T06:15:13.169Z,100469.31
2022-08-19T06:17:40.343Z,100464.47
2022-08-19T06:20:14.511Z,100468.28
2022-08-19T06:22:45.833Z,100461.97
2022-08-19T06:25:15.293Z,100443.41
2022-08-19T06:28:11.438Z,100453.16
2022-08-19T06:30:30.077Z,100455.34
2022-08-19T06:32:56.990Z,100447.88
2022-08-19T06:35:23.985Z,100448.63
2022-08-19T06:37:51.562Z,100446.13
2022-08-19T06:40:18.619Z,100444.16
2022-08-19T06:42:54.411Z,100447.34
2022-08-19T06:45:24.531Z,100448.84
2022-08-19T06:47:55.098Z,100462.00
2022-08-19T06:50:25.038Z,100464.19
2022-08-19T06:52:53.380Z,100473.56
2022-08-19T06:55:21.453Z,100471.88
2022-08-19T06:57:49.071Z,100471.78
2022-08-19T07:00:16.986Z,100476.84
2022-08-19T07:02:49.552Z,100487.25
2022-08-19T07:05:23.399Z,100493.78
2022-08-19T07:07:51.061Z,100497.13
2022-08-19T07:10:18.758Z,100491.97
2022-08-19T07:12:46.575Z,100488.44
2022-08-19T07:15:13.960Z,100490.03
2022-08-19T07:17:42.036Z,100491.28
2022-08-19T07:20:11.178Z,100479.97
2022-08-19T07:22:39.637Z,100486.25
2022-08-19T07:25:09.380Z,100483.63
2022-08-19T07:27:36.598Z,100479.19
2022-08-19T07:30:05.930Z,100484.56
2022-08-19T07:32:32.950Z,100484.09
2022-08-19T07:35:01.830Z,100497.59
2022-08-19T07:37:32.995Z,100502.75
2022-08-19T07:40:02.358Z,100496.47
2022-08-19T07:42:31.307Z,100500.00
2022-08-19T07:44:59.296Z,100509.59
2022-08-19T07:47:58.576Z,100526.28
2022-08-19T07:50:14.248Z,100512.22
2022-08-19T07:52:41.509Z,100513.25
2022-08-19T07:55:40.035Z,100507.97
2022-08-19T07:57:58.978Z,100513.38
2022-08-19T08:00:26.069Z,100513.94
2022-08-19T08:02:55.372Z,100520.88
2022-08-19T08:05:44.004Z,100518.47
2022-08-19T08:08:32.002Z,100517.09
2022-08-19T08:11:00.632Z,100516.16
2022-08-19T08:13:28.918Z,100527.78
2022-08-19T08:15:58.024Z,100533.47
2022-08-19T08:18:27.537Z,100531.38
2022-08-19T08:20:59.027Z,100536.72
2022-08-19T08:23:27.322Z,100542.94
2022-08-19T08:25:58.017Z,100547.66
2022-08-19T08:28:29.838Z,100542.09
2022-08-19T08:30:58.822Z,100549.66
2022-08-19T08:33:33.293Z,100527.97
2022-08-19T08:36:09.856Z,100536.22
2022-08-19T08:38:40.971Z,100543.44
2022-08-19T08:41:47.546Z,100541.66
2022-08-19T08:44:44.495Z,100525.16
2022-08-19T08:47:18.706Z,100531.78
2022-08-19T08:50:02.907Z,100534.72
2022-08-19T08:52:36.382Z,100524.13
2022-08-19T08:55:14.296Z,100516.66
2022-08-19T08:57:56.355Z,100518.34
2022-08-19T09:00:29.040Z,100522.03
2022-08-19T09:02:58.400Z,100527.69
2022-08-19T09:06:00.645Z,100528.91
2022-08-19T09:08:41.809Z,100530.88
2022-08-19T09:11:43.067Z,100531.59
2022-08-19T09:14:49.256Z,100526.88
2022-08-19T09:17:14.450Z,100528.16
2022-08-19T09:19:53.973Z,100528.34
2022-08-19T09:22:25.597Z,100520.50
2022-08-19T09:24:55.218Z,100524.56
2022-08-19T09:27:41.706Z,100511.63
2022-08-19T09:30:19.625Z,100507.72
2022-08-19T09:32:47.512Z,100511.81
2022-08-19T09:35:23.132Z,100511.84
2022-08-19T09:37:57.335Z,100515.38
2022-08-19T09:40:26.690Z,100510.19
2022-08-19T09:42:54.106Z,100502.13
2022-08-19T09:45:23.191Z,100506.44
2022-08-19T09:47:54.240Z,100518.09
2022-08-19T09:50:24.447Z,100521.78
2022-08-19T09:52:55.253Z,100519.19
2022-08-19T09:55:31.323Z,100515.44
2022-08-19T09:58:01.803Z,100516.84
2022-08-19T10:00:29.430Z,100519.56
2022-08-19T10:02:56.383Z,100497.84
2022-08-19T10:05:42.651Z,100508.75
2022-08-19T10:08:13.300Z,100503.41
2022-08-19T10:10:46.220Z,100510.34
2022-08-19T10:13:17.635Z,100505.75
2022-08-19T10:15:48.100Z,100503.81
2022-08-19T10:18:19.303Z,100492.84
2022-08-19T10:20:51.237Z,100499.22
2022-08-19T10:23:21.435Z,100499.22
2022-08-19T10:25:50.773Z,100487.81
2022-08-19T10:28:19.208Z,100495.84
2022-08-19T10:30:48.430Z,100488.59
2022-08-19T10:33:16.203Z,100482.06
2022-08-19T10:36:17.483Z,100479.19
2022-08-19T10:38:52.298Z,100483.31
2022-08-19T10:41:28.694Z,100479.75
2022-08-19T10:44:04.379Z,100476.50
2022-08-19T10:46:34.030Z,100480.06
2022-08-19T10:49:02.606Z,100484.00
2022-08-19T10:51:49.045Z,100478.84
2022-08-19T10:54:17.441Z,100486.69
2022-08-19T10:56:58.468Z,100477.50
2022-08-19T10:59:33.832Z,100490.47
2022-08-19T11:02:07.540Z,100487.66
2022-08-19T11:04:34.476Z,100489.56
2022-08-19T11:07:04.313Z,100488.25
2022-08-19T11:09:34.384Z,100490.72
2022-08-19T11:12:02.655Z,100514.25
2022-08-19T11:14:32.166Z,100508.53
2022-08-19T11:17:02.680Z,100508.69
2022-08-19T11:19:29.750Z,100502.56
2022-08-19T11:21:57.788Z,100506.50
2022-08-19T11:24:28.793Z,100504.16
2022-08-19T11:27:05.760Z,100513.00
2022-08-19T11:29:36.840Z,100505.50
2022-08-19T11:32:11.217Z,100503.41
2022-08-19T11:34:38.884Z,100504.84
2022-08-19T11:37:06.949Z,100512.56
2022-08-19T11:39:37.608Z,100510.16
2022-08-19T11:42:27.220Z,100503.78
2022-08-19T11:44:55.080Z,100504.19
2022-08-19T11:47:22.147Z,100494.28
2022-08-19T11:49:49.410Z,100509.88
2022-08-19T11:52:16.440Z,100505.66
2022-08-19T11:54:43.477Z,100514.84
2022-08-19T11:57:10.353Z,100527.94
2022-08-19T11:59:37.376Z,100529.13
2022-08-19T12:02:04.643Z,100531.91
2022-08-19T12:04:31.484Z,100537.03
2022-08-19T12:06:58.386Z,100529.06
2022-08-19T12:09:25.580Z,100537.75
2022-08-19T12:11:52.456Z,100546.03
2022-08-19T12:14:19.661Z,100532.53
2022-08-19T12:16:51.333Z,100537.34
2022-08-19T12:19:21.903Z,100539.41
2022-08-19T12:21:50.777Z,100539.50
2022-08-19T12:24:24.222Z,100555.28
2022-08-19T12:26:53.356Z,100551.22
2022-08-19T12:29:23.947Z,100541.22
2022-08-19T12:31:52.378Z,100541.91
2022-08-19T12:34:20.883Z,100545.88
2022-08-19T12:36:50.073Z,100545.25
2022-08-19T12:39:17.408Z,100547.78
2022-08-19T12:41:51.283Z,100548.28
2022-08-19T12:44:29.616Z,100540.47
2022-08-19T12:46:59.900Z,100551.25
2022-08-19T12:49:52.111Z,100548.50
2022-08-19T12:52:22.434Z,100542.53
2022-08-19T12:54:54.579Z,100535.81
2022-08-19T12:57:31.917Z,100539.56
2022-08-19T13:00:12.848Z,100541.31
2022-08-19T13:02:42.324Z,100539.16
2022-08-19T13:05:12.414Z,100536.06
2022-08-19T13:07:41.058Z,100544.84
2022-08-19T13:10:12.051Z,100539.31
2022-08-19T13:12:39.750Z,100546.06
2022-08-19T13:15:10.614Z,100541.38
2022-08-19T13:17:40.164Z,100543.78
2022-08-19T13:20:10.497Z,100548.03
2022-08-19T13:22:38.591Z,100555.00
2022-08-19T13:25:07.854Z,100552.13
2022-08-19T13:27:35.109Z,100552.81
2022-08-19T13:30:23.711Z,100551.84
2022-08-19T13:33:09.548Z,100550.03
2022-08-19T13:35:36.585Z,100553.00
2022-08-19T13:38:05.921Z,100547.34
2022-08-19T13:40:39.915Z,100544.88
2022-08-19T13:43:15.803Z,100542.97
2022-08-19T13:45:57.423Z,100540.25
2022-08-19T13:48:27.845Z,100544.94
2022-08-19T13:50:55.374Z,100550.81
2022-08-19T13:53:22.698Z,100542.84
2022-08-19T13:55:51.507Z,100547.47
2022-08-19T13:58:18.428Z,100547.63
2022-08-19T14:00:47.835Z,100545.47
2022-08-19T14:03:15.512Z,100544.91
2022-08-19T14:05:42.413Z,100534.06
2022-08-19T14:08:10.408Z,100537.31
2022-08-19T14:10:37.362Z,100533.56
2022-08-19T14:13:05.338Z,100540.50
2022-08-19T14:15:32.831Z,100543.13
2022-08-19T14:18:00.229Z,100534.09
2022-08-19T14:20:27.857Z,100540.25
2022-08-19T14:22:56.194Z,100549.94
2022-08-19T14:25:27.043Z,100544.63
2022-08-19T14:27:54.859Z,100550.59
2022-08-19T14:30:34.176Z,100552.66
2022-08-19T14:33:02.959Z,100559.00
2022-08-19T14:35:33.521Z,100567.38
2022-08-19T14:38:01.055Z,100561.59
2022-08-19T14:40:31.280Z,100558.63
2022-08-19T14:43:05.188Z,100562.53
2022-08-19T14:45:37.090Z,100556.09
2022-08-19T14:48:06.994Z,100561.09
2022-08-19T14:50:35.367Z,100562.13
2022-08-19T14:53:12.877Z,100554.91
2022-08-19T14:55:44.061Z,100564.63
2022-08-19T14:58:29.312Z,100567.59
2022-08-19T15:01:00.270Z,100568.94
2022-08-19T15:03:28.761Z,100578.28
2022-08-19T15:05:58.265Z,100587.91
2022-08-19T15:08:26.352Z,100586.94
2022-08-19T15:10:54.006Z,100593.06
2022-08-19T15:13:21.507Z,100590.91
2022-08-19T15:15:49.216Z,100597.94
2022-08-19T15:18:16.646Z,100605.56
2022-08-19T15:20:44.464Z,100612.81
2022-08-19T15:23:16.253Z,100611.41
2022-08-19T15:25:44.308Z,100609.69
2022-08-19T15:28:12.054Z,100608.38
2022-08-19T15:30:40.852Z,100608.88
2022-08-19T15:33:08.491Z,100609.03
2022-08-19T15:35:35.566Z,100609.00
2022-08-19T15:38:03.018Z,100625.53
2022-08-19T15:40:29.925Z,100628.78
2022-08-19T15:42:58.751Z,100620.78
2022-08-19T15:45:32.865Z,100626.19
2022-08-19T15:48:05.326Z,100626.84
2022-08-19T15:50:32.589Z,100621.69
2022-08-19T15:53:05.182Z,100615.63
2022-08-19T15:55:37.012Z,100623.41
2022-08-19T15:58:31.601Z,100610.38
2022-08-19T16:01:21.295Z,100611.31
2022-08-19T16:04:11.322Z,100619.00
2022-08-19T16:06:49.463Z,100619.22
2022-08-19T16:09:23.483Z,100615.59
2022-08-19T16:11:56.865Z,100610.31
2022-08-19T16:14:26.811Z,100620.50
2022-08-19T16:16:54.929Z,100614.56
2022-08-19T16:19:21.916Z,100612.97
2022-08-19T16:21:53.047Z,100615.59
2022-08-19T16:24:25.989Z,100610.34
2022-08-19T16:26:53.636Z,100626.38
2022-08-19T16:29:34.423Z,100632.56
2022-08-19T16:32:10.646Z,100626.47
2022-08-19T16:34:40.226Z,100632.19
2022-08-19T16:37:07.847Z,100636.41
2022-08-19T16:39:34.849Z,100627.03
2022-08-19T16:42:02.809Z,100635.84
2022-08-19T16:44:30.161Z,100625.66
2022-08-19T16:46:59.704Z,100631.03
2022-08-19T16:49:54.042Z,100627.16
2022-08-19T16:52:18.220Z,100624.06
2022-08-19T16:54:45.572Z,100624.06
2022-08-19T16:57:12.915Z,100622.13
2022-08-19T16:59:43.683Z,100625.22
2022-08-19T17:02:22.421Z,100625.34
2022-08-19T17:04:58.303Z,100634.84
2022-08-19T17:07:33.273Z,100633.69
2022-08-19T17:10:03.422Z,100625.13
2022-08-19T17:12:32.369Z,100625.00
2022-08-19T17:15:01.406Z,100628.91
2022-08-19T17:17:30.113Z,100635.84
2022-08-19T17:19:59.270Z,100618.34
2022-08-19T17:22:26.922Z,100620.41
2022-08-19T17:24:56.308Z,100635.13
2022-08-19T17:27:32.058Z,100636.28
2022-08-19T17:30:03.086Z,100627.34
2022-08-19T17:32:34.220Z,100632.72
2022-08-19T17:35:03.772Z,100642.78
2022-08-19T17:37:31.260Z,100641.41
2022-08-19T17:39:58.355Z,100637.63
2022-08-19T17:42:25.548Z,100643.34
2022-08-19T17:44:52.572Z,100649.69
2022-08-19T17:47:21.035Z,100656.31
2022-08-19T17:49:48.281Z,100649.09
2022-08-19T17:52:15.586Z,100646.25
2022-08-19T17:54:42.534Z,100647.25
2022-08-19T17:57:09.808Z,100661.66
2022-08-19T17:59:39.825Z,100651.22
2022-08-19T18:02:10.057Z,100662.53
2022-08-19T18:04:38.981Z,100676.91
2022-08-19T18:07:06.450Z,100677.13
2022-08-19T18:09:41.381Z,100675.53
2022-08-19T18:12:12.805Z,100679.13
2022-08-19T18:14:41.932Z,100682.88
2022-08-19T18:17:13.516Z,100689.34
2022-08-19T18:19:43.701Z,100687.28
2022-08-19T18:22:29.106Z,100687.78
2022-08-19T18:24:58.465Z,100689.94
2022-08-19T18:27:27.901Z,100682.38
2022-08-19T18:29:57.991Z,100672.75
2022-08-19T18:32:34.691Z,100699.03
2022-08-19T18:35:10.979Z,100695.69
2022-08-19T18:37:39.349Z,100708.16
2022-08-19T18:40:26.686Z,100719.44
2022-08-19T18:43:13.259Z,100720.59
2022-08-19T18:46:00.168Z,100724.66
2022-08-19T18:48:46.064Z,100726.13
2022-08-19T18:51:14.513Z,100732.41
2022-08-19T18:53:43.252Z,100730.47
2022-08-19T18:56:13.552Z,100736.59
2022-08-19T18:58:41.737Z,100745.94
2022-08-19T19:01:17.958Z,100740.00
2022-08-19T19:03:51.278Z,100737.78
2022-08-19T19:06:23.144Z,100747.59
2022-08-19T19:08:52.393Z,100747.28
2022-08-19T19:11:33.854Z,100752.41
2022-08-19T19:14:03.857Z,100757.44
2022-08-19T19:16:32.533Z,100765.97
2022-08-19T19:18:59.658Z,100766.63
2022-08-19T19:21:30.843Z,100764.69
2022-08-19T19:24:02.070Z,100764.69
2022-08-19T19:26:29.218Z,100768.56
2022-08-19T19:28:57.426Z,100765.50
2022-08-19T19:31:26.814Z,100762.91
2022-08-19T19:33:56.798Z,100771.91
2022-08-19T19:36:24.060Z,100777.41
2022-08-19T19:38:51.293Z,100779.34
2022-08-19T19:41:25.908Z,100782.06
2022-08-19T19:44:23.156Z,100781.75
2022-08-19T19:46:43.577Z,100784.00
2022-08-19T19:49:11.902Z,100779.19
2022-08-19T19:51:41.259Z,100783.38
2022-08-19T19:54:14.235Z,100788.88
2022-08-19T19:56:48.822Z,100790.16
2022-08-19T19:59:16.777Z,100786.94
2022-08-19T20:01:46.081Z,100786.94
2022-08-19T20:04:15.639Z,100788.06
2022-08-19T20:06:43.358Z,100779.84
2022-08-19T20:09:14.217Z,100789.34
2022-08-19T20:11:53.493Z,100793.69
2022-08-19T20:14:30.268Z,100799.16
2022-08-19T20:16:59.001Z,100795.94
2022-08-19T20:19:37.657Z,100798.03
2022-08-19T20:22:06.719Z,100803.50
2022-08-19T20:24:36.462Z,100791.75
2022-08-19T20:27:04.911Z,100791.75
2022-08-19T20:29:39.300Z,100793.69
2022-08-19T20:32:09.290Z,100781.47
2022-08-19T20:34:37.167Z,100781.59
2022-08-19T20:37:04.821Z,100779.34
2022-08-19T20:39:32.014Z,100773.38
2022-08-19T20:42:00.724Z,100767.44
2022-08-19T20:44:28.007Z,100776.94
2022-08-19T20:46:58.379Z,100770.97
2022-08-19T20:49:27.237Z,100774.19
2022-08-19T20:51:56.521Z,100770.97
2022-08-19T20:54:24.682Z,100766.16
2022-08-19T20:56:52.819Z,100770.66
2022-08-19T20:59:21.749Z,100772.13
2022-08-19T21:01:51.691Z,100764.69
2022-08-19T21:04:21.588Z,100761.97
2022-08-19T21:06:49.998Z,100754.56
2022-08-19T21:09:17.300Z,100763.09
2022-08-19T21:11:44.255Z,100763.09
2022-08-19T21:14:12.841Z,100766.63
2022-08-19T21:16:39.797Z,100766.97
2022-08-19T21:19:07.750Z,100768.09
2022-08-19T21:21:34.958Z,100759.41
2022-08-19T21:24:02.249Z,100767.16
2022-08-19T21:26:29.190Z,100772.94
2022-08-19T21:28:56.583Z,100783.44
2022-08-19T21:31:23.453Z,100782.63
2022-08-19T21:33:50.526Z,100786.97
2022-08-19T21:36:17.699Z,100799.38
2022-08-19T21:38:44.560Z,100797.28
2022-08-19T21:41:11.540Z,100799.22
2022-08-19T21:43:39.013Z,100786.66
2022-08-19T21:46:07.107Z,100790.22
2022-08-19T21:48:34.024Z,100777.66
2022-08-19T21:51:01.168Z,100789.72
2022-08-19T21:53:33.993Z,100780.38
2022-08-19T21:56:03.094Z,100777.19
2022-08-19T21:58:30.824Z,100766.09
2022-08-19T22:01:01.655Z,100773.16
2022-08-19T22:03:29.520Z,100773.81
2022-08-19T22:05:56.372Z,100783.16
2022-08-19T22:08:23.397Z,100780.59
2022-08-19T22:10:50.657Z,100779.00
2022-08-19T22:13:20.112Z,100772.72
2022-08-19T22:15:48.676Z,100772.22
2022-08-19T22:18:17.961Z,100770.63
2022-08-19T22:20:45.621Z,100772.56
2022-08-19T22:23:12.712Z,100763.06
2022-08-19T22:25:44.677Z,100769.03
2022-08-19T22:28:15.168Z,100762.28
2022-08-19T22:30:51.139Z,100768.06
2022-08-19T22:33:21.346Z,100765.66
2022-08-19T22:35:51.690Z,100767.91
2022-08-19T22:38:19.345Z,100776.78
2022-08-19T22:40:48.576Z,100789.00
2022-08-19T22:43:24.860Z,100786.75
2022-08-19T22:45:54.347Z,100783.53
2022-08-19T22:48:26.355Z,100768.25
2022-08-19T22:51:13.244Z,100771.31
2022-08-19T22:53:45.020Z,100764.22
2022-08-19T22:56:15.530Z,100759.56
2022-08-19T22:58:43.613Z,100764.22
2022-08-19T23:01:14.663Z,100759.56
2022-08-19T23:03:57.020Z,100761.50
2022-08-19T23:06:23.853Z,100751.97
2022-08-19T23:09:01.496Z,100752.97
2022-08-19T23:11:33.399Z,100759.56
2022-08-19T23:14:00.369Z,100763.91
2022-08-19T23:16:27.557Z,100775.97
2022-08-19T23:18:56.182Z,100763.56
2022-08-19T23:21:26.574Z,100767.13
2022-08-19T23:23:53.863Z,100785.94
2022-08-19T23:26:21.441Z,100784.00
2022-08-19T23:29:06.973Z,100774.66
2022-08-19T23:31:36.213Z,100777.72
2022-08-19T23:34:04.081Z,100773.88
2022-08-19T23:36:31.584Z,100771.13
2022-08-19T23:38:59.537Z,100772.72
2022-08-19T23:41:29.860Z,100771.13
2022-08-19T23:43:57.360Z,100765.66
2022-08-19T23:46:28.519Z,100756.66
2022-08-19T23:48:56.867Z,100754.72
2022-08-19T23:51:26.616Z,100764.19
2022-08-19T23:53:53.659Z,100761.78
2022-08-19T23:56:21.479Z,100750.69
2022-08-19T23:58:49.126Z,100749.75
